createdAt,value
2022-07-29T00:00:17.968Z,12.72
2022-07-29T00:03:04.557Z,12.69
2022-07-29T00:05:53.131Z,12.68
2022-07-29T00:08:39.489Z,12.61
2022-07-29T00:11:26.339Z,12.56
2022-07-29T00:14:13.659Z,12.54
2022-07-29T00:17:00.751Z,12.51
2022-07-29T00:19:49.588Z,12.42
2022-07-29T00:22:40.819Z,12.41
2022-07-29T00:25:27.939Z,12.40
2022-07-29T00:28:15.884Z,12.33
2022-07-29T00:31:04.083Z,12.33
2022-07-29T00:33:50.896Z,12.30
2022-07-29T00:36:36.662Z,12.35
2022-07-29T00:39:24.760Z,12.29
2022-07-29T00:42:13.220Z,12.30
2022-07-29T00:45:00.073Z,12.24
2022-07-29T00:47:47.179Z,12.23
2022-07-29T00:50:41.704Z,12.14
2022-07-29T00:53:29.056Z,12.12
2022-07-29T00:56:17.126Z,12.10
2022-07-29T00:59:04.061Z,12.09
2022-07-29T01:01:50.730Z,12.06
2022-07-29T01:04:37.466Z,12.06
2022-07-29T01:07:24.373Z,12.02
2022-07-29T01:10:12.356Z,12.00
2022-07-29T01:13:02.859Z,11.96
2022-07-29T01:15:59.306Z,11.95
2022-07-29T01:18:49.051Z,11.96
2022-07-29T01:21:52.266Z,11.97
2022-07-29T01:25:04.527Z,11.94
2022-07-29T01:28:11.688Z,11.91
2022-07-29T01:31:02.622Z,11.90
2022-07-29T01:33:54.962Z,11.87
2022-07-29T01:36:47.017Z,11.57
2022-07-29T01:39:38.292Z,11.76
2022-07-29T01:42:32.001Z,11.87
2022-07-29T01:45:22.376Z,11.81
2022-07-29T01:48:15.484Z,11.73
2022-07-29T01:51:08.001Z,11.72
2022-07-29T01:54:01.884Z,11.78
2022-07-29T01:56:52.082Z,11.73
2022-07-29T01:59:40.454Z,11.68
2022-07-29T02:02:28.480Z,11.65
2022-07-29T02:05:19.765Z,11.62
2022-07-29T02:08:08.373Z,11.61
2022-07-29T02:10:57.195Z,11.54
2022-07-29T02:13:46.389Z,11.54
2022-07-29T02:16:35.605Z,11.52
2022-07-29T02:19:25.768Z,11.53
2022-07-29T02:22:14.943Z,11.50
2022-07-29T02:25:03.831Z,11.46
2022-07-29T02:27:52.329Z,11.57
2022-07-29T02:30:44.181Z,11.61
2022-07-29T02:33:32.886Z,11.60
2022-07-29T02:36:23.156Z,11.47
2022-07-29T02:39:12.981Z,11.55
2022-07-29T02:42:04.190Z,11.55
2022-07-29T02:44:50.884Z,11.53
2022-07-29T02:47:42.341Z,11.53
2022-07-29T02:50:34.755Z,11.50
2022-07-29T02:53:24.767Z,11.50
2022-07-29T02:56:16.828Z,11.47
2022-07-29T02:59:08.357Z,11.45
2022-07-29T03:01:57.702Z,11.52
2022-07-29T03:04:46.199Z,11.58
2022-07-29T03:07:34.810Z,11.60
2022-07-29T03:10:22.192Z,11.47
2022-07-29T03:13:11.510Z,11.60
2022-07-29T03:15:59.907Z,11.64
2022-07-29T03:18:46.507Z,11.66
2022-07-29T03:21:33.319Z,11.67
2022-07-29T03:24:31.250Z,11.62
2022-07-29T03:27:18.206Z,11.49
2022-07-29T03:30:08.260Z,11.37
2022-07-29T03:32:56.539Z,11.49
2022-07-29T03:35:45.323Z,11.55
2022-07-29T03:38:35.125Z,11.59
2022-07-29T03:41:24.345Z,11.61
2022-07-29T03:44:11.916Z,11.71
2022-07-29T03:47:03.137Z,11.75
2022-07-29T03:49:52.032Z,11.77
2022-07-29T03:52:38.787Z,11.81
2022-07-29T03:55:26.294Z,11.86
2022-07-29T03:58:14.659Z,11.94
2022-07-29T04:01:01.645Z,12.00
2022-07-29T04:03:49.911Z,12.06
2022-07-29T04:06:41.507Z,12.08
2022-07-29T04:09:28.062Z,12.17
2022-07-29T04:12:14.887Z,12.19
2022-07-29T04:15:01.532Z,12.21
2022-07-29T04:17:48.196Z,12.28
2022-07-29T04:20:37.651Z,12.34
2022-07-29T04:23:24.477Z,12.41
2022-07-29T04:26:11.943Z,12.44
2022-07-29T04:28:58.803Z,12.50
2022-07-29T04:31:46.359Z,12.58
2022-07-29T04:34:33.015Z,12.62
2022-07-29T04:37:21.357Z,12.71
2022-07-29T04:40:09.136Z,12.72
2022-07-29T04:42:55.590Z,12.77
2022-07-29T04:45:47.368Z,12.85
2022-07-29T04:48:34.315Z,12.92
2022-07-29T04:51:20.923Z,13.02
2022-07-29T04:54:09.044Z,13.12
2022-07-29T04:56:58.436Z,13.14
2022-07-29T04:59:52.797Z,13.21
2022-07-29T05:02:43.475Z,13.30
2022-07-29T05:05:30.377Z,13.39
2022-07-29T05:08:17.070Z,13.51
2022-07-29T05:11:12.213Z,13.63
2022-07-29T05:13:59.537Z,13.72
2022-07-29T05:16:46.556Z,13.81
2022-07-29T05:19:33.192Z,13.94
2022-07-29T05:22:20.321Z,13.99
2022-07-29T05:25:09.298Z,14.01
2022-07-29T05:27:58.039Z,14.02
2022-07-29T05:30:45.534Z,14.07
2022-07-29T05:33:36.134Z,14.09
2022-07-29T05:36:23.639Z,14.19
2022-07-29T05:39:10.467Z,14.41
2022-07-29T05:41:57.123Z,14.86
2022-07-29T05:44:45.354Z,15.58
2022-07-29T05:47:32.241Z,16.08
2022-07-29T05:50:20.663Z,16.49
2022-07-29T05:53:19.104Z,16.63
2022-07-29T05:56:09.361Z,16.83
2022-07-29T05:58:56.918Z,16.94
2022-07-29T06:01:45.454Z,16.96
2022-07-29T06:04:32.596Z,16.96
2022-07-29T06:07:19.359Z,16.73
2022-07-29T06:10:07.092Z,16.66
2022-07-29T06:12:53.813Z,16.62
2022-07-29T06:15:40.852Z,16.57
2022-07-29T06:18:29.922Z,16.59
2022-07-29T06:21:17.003Z,16.56
2022-07-29T06:24:03.836Z,16.70
2022-07-29T06:26:50.620Z,16.74
2022-07-29T06:29:37.237Z,16.80
2022-07-29T06:32:27.406Z,16.91
2022-07-29T06:38:30.917Z,16.97
2022-07-29T06:41:21.168Z,16.99
2022-07-29T06:44:07.993Z,17.17
2022-07-29T06:46:56.408Z,17.38
2022-07-29T06:49:43.446Z,17.48
2022-07-29T06:52:31.138Z,17.53
2022-07-29T06:55:24.830Z,17.76
2022-07-29T06:58:12.980Z,17.84
2022-07-29T07:01:03.740Z,17.97
2022-07-29T07:03:50.666Z,18.04
2022-07-29T07:06:38.600Z,18.16
2022-07-29T07:09:40.078Z,18.32
2022-07-29T07:12:34.619Z,18.59
2022-07-29T07:15:23.078Z,18.55
2022-07-29T07:18:25.945Z,18.62
2022-07-29T07:21:12.726Z,18.58
2022-07-29T07:24:07.238Z,18.72
2022-07-29T07:26:55.356Z,18.62
2022-07-29T07:29:44.340Z,18.82
2022-07-29T07:32:31.260Z,18.82
2022-07-29T07:35:17.688Z,18.92
2022-07-29T07:38:04.493Z,18.99
2022-07-29T07:40:51.100Z,18.95
2022-07-29T07:43:39.229Z,18.99
2022-07-29T07:46:25.922Z,19.11
2022-07-29T07:49:12.836Z,19.27
2022-07-29T07:51:59.646Z,19.48
2022-07-29T07:54:46.210Z,19.72
2022-07-29T07:57:33.086Z,19.74
2022-07-29T08:00:23.066Z,19.88
2022-07-29T08:03:16.808Z,19.90
2022-07-29T08:06:04.119Z,19.91
2022-07-29T08:08:51.902Z,20.11
2022-07-29T08:11:39.016Z,20.27
2022-07-29T08:14:38.615Z,20.42
2022-07-29T08:17:27.676Z,20.57
2022-07-29T08:20:14.402Z,20.78
2022-07-29T08:23:01.683Z,21.11
2022-07-29T08:25:50.341Z,21.36
2022-07-29T08:28:36.951Z,21.64
2022-07-29T08:31:23.786Z,21.90
2022-07-29T08:34:11.888Z,22.20
2022-07-29T08:36:58.971Z,22.43
2022-07-29T08:39:45.457Z,22.59
2022-07-29T08:42:33.294Z,22.89
2022-07-29T08:45:20.048Z,23.10
2022-07-29T08:48:06.786Z,23.51
2022-07-29T08:50:59.271Z,23.56
2022-07-29T08:53:49.334Z,23.52
2022-07-29T08:56:36.790Z,23.61
2022-07-29T08:59:27.830Z,23.74
2022-07-29T09:02:33.228Z,23.85
2022-07-29T09:05:25.230Z,23.86
2022-07-29T09:08:14.588Z,23.92
2022-07-29T09:11:05.553Z,23.95
2022-07-29T09:13:53.289Z,24.04
2022-07-29T09:16:53.182Z,24.04
2022-07-29T09:19:45.517Z,24.18
2022-07-29T09:22:36.733Z,24.37
2022-07-29T09:25:38.425Z,24.44
2022-07-29T09:28:25.801Z,24.32
2022-07-29T09:31:12.665Z,24.34
2022-07-29T09:34:01.264Z,24.30
2022-07-29T09:36:49.898Z,24.23
2022-07-29T09:39:38.990Z,24.22
2022-07-29T09:42:34.901Z,24.37
2022-07-29T09:45:32.465Z,24.70
2022-07-29T09:48:21.280Z,24.99
2022-07-29T09:51:07.981Z,25.26
2022-07-29T09:53:55.326Z,25.49
2022-07-29T09:56:43.336Z,25.58
2022-07-29T09:59:31.118Z,25.66
2022-07-29T10:02:23.541Z,25.71
2022-07-29T10:05:19.834Z,25.41
2022-07-29T10:08:08.618Z,25.27
2022-07-29T10:11:11.538Z,25.26
2022-07-29T10:13:59.264Z,25.14
2022-07-29T10:16:47.828Z,25.16
2022-07-29T10:19:35.823Z,25.20
2022-07-29T10:22:51.459Z,25.19
2022-07-29T10:25:29.781Z,25.31
2022-07-29T10:28:16.999Z,25.37
2022-07-29T10:31:09.343Z,25.29
2022-07-29T10:34:07.462Z,25.19
2022-07-29T10:37:09.696Z,25.14
2022-07-29T10:40:27.695Z,25.23
2022-07-29T10:43:21.691Z,25.57
2022-07-29T10:46:09.253Z,25.97
2022-07-29T10:49:15.467Z,26.17
2022-07-29T10:52:06.353Z,26.08
2022-07-29T10:54:53.751Z,26.10
2022-07-29T11:00:50.589Z,26.51
2022-07-29T11:03:52.257Z,26.62
2022-07-29T11:07:13.302Z,26.49
2022-07-29T11:10:30.977Z,26.51
2022-07-29T11:13:49.386Z,26.54
2022-07-29T11:17:01.977Z,26.49
2022-07-29T11:19:52.134Z,26.41
2022-07-29T11:22:43.055Z,26.29
2022-07-29T11:25:50.417Z,26.34
2022-07-29T11:28:49.996Z,26.39
2022-07-29T11:31:42.469Z,26.48
2022-07-29T11:34:31.446Z,26.44
2022-07-29T11:37:27.619Z,26.37
2022-07-29T11:40:25.160Z,26.50
2022-07-29T11:43:11.867Z,26.47
2022-07-29T11:46:01.534Z,26.32
2022-07-29T11:48:48.167Z,26.32
2022-07-29T11:51:48.177Z,26.32
2022-07-29T11:54:38.739Z,26.58
2022-07-29T11:58:04.041Z,26.86
2022-07-29T12:00:50.880Z,26.99
2022-07-29T12:03:38.165Z,26.97
2022-07-29T12:06:25.939Z,26.65
2022-07-29T12:09:14.771Z,26.60
2022-07-29T12:12:05.201Z,26.30
2022-07-29T12:14:53.776Z,26.30
2022-07-29T12:17:41.831Z,26.30
2022-07-29T12:20:30.392Z,26.49
2022-07-29T12:23:17.466Z,26.60
2022-07-29T12:26:11.033Z,26.80
2022-07-29T12:29:15.533Z,26.97
2022-07-29T12:32:14.994Z,26.98
2022-07-29T12:35:08.876Z,27.04
2022-07-29T12:37:55.890Z,27.12
2022-07-29T12:40:47.026Z,27.10
2022-07-29T12:43:33.807Z,27.20
2022-07-29T12:46:20.376Z,27.01
2022-07-29T12:49:08.680Z,26.74
2022-07-29T12:51:56.716Z,26.91
2022-07-29T12:54:49.408Z,27.15
2022-07-29T12:57:47.608Z,27.31
2022-07-29T13:00:34.638Z,27.32
2022-07-29T13:03:21.210Z,27.37
2022-07-29T13:06:09.592Z,27.40
2022-07-29T13:09:04.906Z,27.47
2022-07-29T13:11:54.674Z,27.41
2022-07-29T13:14:43.343Z,27.25
2022-07-29T13:17:32.617Z,27.15
2022-07-29T13:20:20.114Z,27.15
2022-07-29T13:23:07.906Z,27.26
2022-07-29T13:25:54.659Z,27.48
2022-07-29T13:28:44.149Z,27.58
2022-07-29T13:31:30.767Z,27.70
2022-07-29T13:34:18.137Z,27.71
2022-07-29T13:37:04.981Z,27.84
2022-07-29T13:39:53.521Z,27.93
2022-07-29T13:42:40.800Z,28.16
2022-07-29T13:45:29.218Z,28.11
2022-07-29T13:48:16.016Z,27.92
2022-07-29T13:51:03.192Z,27.85
2022-07-29T13:53:49.493Z,27.90
2022-07-29T13:56:37.599Z,27.94
2022-07-29T13:59:24.353Z,27.80
2022-07-29T14:02:13.320Z,27.42
2022-07-29T14:05:07.659Z,27.29
2022-07-29T14:07:55.198Z,27.35
2022-07-29T14:10:42.129Z,27.22
2022-07-29T14:13:30.430Z,26.88
2022-07-29T14:16:18.720Z,26.59
2022-07-29T14:19:05.736Z,26.60
2022-07-29T14:21:52.425Z,26.82
2022-07-29T14:24:39.150Z,27.01
2022-07-29T14:27:38.074Z,26.92
2022-07-29T14:30:26.498Z,26.75
2022-07-29T14:33:13.333Z,26.64
2022-07-29T14:36:01.186Z,26.50
2022-07-29T14:38:48.433Z,26.55
2022-07-29T14:41:34.930Z,26.76
2022-07-29T14:44:21.506Z,26.94
2022-07-29T14:47:10.019Z,26.93
2022-07-29T14:49:56.430Z,26.93
2022-07-29T14:52:43.175Z,27.05
2022-07-29T14:55:30.152Z,27.38
2022-07-29T14:58:16.840Z,27.26
2022-07-29T15:01:03.611Z,27.22
2022-07-29T15:03:51.775Z,26.88
2022-07-29T15:06:39.019Z,26.58
2022-07-29T15:09:25.806Z,26.49
2022-07-29T15:12:12.685Z,26.39
2022-07-29T15:14:59.433Z,26.61
2022-07-29T15:17:46.639Z,26.87
2022-07-29T15:20:34.794Z,27.14
2022-07-29T15:23:21.631Z,27.21
2022-07-29T15:26:08.531Z,27.37
2022-07-29T15:28:56.632Z,27.39
2022-07-29T15:31:43.359Z,27.41
2022-07-29T15:34:30.255Z,27.19
2022-07-29T15:37:18.396Z,27.09
2022-07-29T15:40:06.212Z,27.15
2022-07-29T15:42:52.545Z,27.15
2022-07-29T15:45:40.561Z,27.04
2022-07-29T15:48:27.488Z,26.91
2022-07-29T15:51:14.321Z,26.96
2022-07-29T15:54:03.004Z,27.07
2022-07-29T15:56:49.269Z,27.08
2022-07-29T15:59:36.011Z,27.30
2022-07-29T16:02:22.921Z,27.19
2022-07-29T16:05:09.890Z,27.12
2022-07-29T16:07:57.263Z,26.88
2022-07-29T16:10:45.448Z,27.00
2022-07-29T16:13:32.212Z,27.10
2022-07-29T16:16:19.378Z,27.20
2022-07-29T16:19:31.269Z,27.31
2022-07-29T16:22:18.058Z,27.51
2022-07-29T16:25:04.985Z,27.53
2022-07-29T16:27:55.985Z,27.51
2022-07-29T16:30:45.975Z,27.36
2022-07-29T16:33:54.342Z,27.43
2022-07-29T16:36:39.601Z,27.38
2022-07-29T16:39:26.238Z,27.40
2022-07-29T16:42:30.750Z,27.37
2022-07-29T16:45:21.545Z,27.26
2022-07-29T16:48:08.341Z,27.12
2022-07-29T16:50:56.232Z,26.97
2022-07-29T16:53:43.173Z,26.82
2022-07-29T16:56:29.927Z,26.62
2022-07-29T16:59:16.629Z,26.37
2022-07-29T17:02:05.123Z,26.32
2022-07-29T17:04:52.003Z,26.26
2022-07-29T17:07:38.549Z,26.04
2022-07-29T17:10:26.606Z,25.98
2022-07-29T17:13:14.529Z,25.93
2022-07-29T17:16:01.431Z,25.93
2022-07-29T17:18:49.343Z,26.03
2022-07-29T17:21:36.235Z,26.04
2022-07-29T17:24:35.040Z,25.97
2022-07-29T17:27:21.824Z,25.96
2022-07-29T17:30:11.293Z,25.94
2022-07-29T17:32:58.073Z,25.84
2022-07-29T17:36:03.394Z,25.78
2022-07-29T17:38:50.436Z,25.59
2022-07-29T17:41:36.982Z,25.54
2022-07-29T17:44:26.041Z,25.46
2022-07-29T17:47:15.946Z,25.29
2022-07-29T17:50:03.656Z,25.20
2022-07-29T17:52:51.589Z,25.31
2022-07-29T17:55:39.551Z,25.31
2022-07-29T17:58:26.382Z,25.26
2022-07-29T18:01:12.870Z,25.19
2022-07-29T18:04:00.719Z,25.04
2022-07-29T18:06:47.476Z,25.01
2022-07-29T18:09:35.540Z,24.93
2022-07-29T18:12:22.465Z,24.80
2022-07-29T18:15:09.642Z,24.80
2022-07-29T18:17:57.980Z,24.67
2022-07-29T18:20:45.666Z,24.46
2022-07-29T18:23:32.608Z,24.27
2022-07-29T18:26:20.742Z,24.13
2022-07-29T18:29:07.652Z,24.03
2022-07-29T18:31:58.938Z,23.93
2022-07-29T18:34:45.714Z,23.88
2022-07-29T18:38:00.870Z,23.83
2022-07-29T18:40:42.509Z,23.71
2022-07-29T18:43:33.473Z,23.66
2022-07-29T18:46:20.473Z,23.52
2022-07-29T18:49:08.296Z,23.40
2022-07-29T18:51:56.996Z,23.31
2022-07-29T18:54:43.639Z,23.20
2022-07-29T18:57:54.920Z,23.11
2022-07-29T19:00:38.251Z,22.95
2022-07-29T19:03:24.955Z,22.79
2022-07-29T19:06:11.643Z,22.73
2022-07-29T19:08:58.726Z,22.59
2022-07-29T19:11:45.588Z,22.54
2022-07-29T19:14:32.325Z,22.51
2022-07-29T19:17:24.684Z,22.42
2022-07-29T19:20:12.223Z,22.25
2022-07-29T19:22:58.765Z,22.15
2022-07-29T19:25:53.201Z,22.13
2022-07-29T19:28:42.149Z,21.95
2022-07-29T19:31:37.216Z,21.83
2022-07-29T19:34:25.349Z,21.71
2022-07-29T19:37:12.628Z,21.57
2022-07-29T19:40:01.873Z,21.43
2022-07-29T19:42:51.659Z,21.39
2022-07-29T19:45:38.314Z,21.36
2022-07-29T19:48:25.241Z,21.37
2022-07-29T19:51:13.299Z,21.36
2022-07-29T19:54:01.829Z,21.27
2022-07-29T19:56:48.451Z,21.20
2022-07-29T19:59:36.341Z,21.17
2022-07-29T20:02:23.801Z,21.03
2022-07-29T20:05:10.974Z,20.98
2022-07-29T20:07:59.364Z,21.06
2022-07-29T20:10:46.093Z,21.00
2022-07-29T20:13:35.347Z,20.93
2022-07-29T20:16:22.791Z,20.93
2022-07-29T20:19:12.074Z,21.04
2022-07-29T20:21:59.077Z,21.01
2022-07-29T20:24:47.676Z,20.95
2022-07-29T20:27:36.924Z,20.95
2022-07-29T20:30:24.295Z,20.93
2022-07-29T20:33:11.737Z,20.84
2022-07-29T20:35:58.569Z,20.76
2022-07-29T20:38:45.240Z,20.66
2022-07-29T20:41:34.008Z,20.57
2022-07-29T20:44:20.976Z,20.49
2022-07-29T20:47:07.740Z,20.49
2022-07-29T20:49:54.712Z,20.36
2022-07-29T20:52:43.400Z,20.30
2022-07-29T20:55:33.110Z,20.27
2022-07-29T20:58:25.983Z,20.17
2022-07-29T21:01:13.674Z,20.11
2022-07-29T21:04:01.380Z,20.04
2022-07-29T21:06:52.039Z,20.00
2022-07-29T21:09:39.529Z,19.92
2022-07-29T21:12:26.490Z,19.80
2022-07-29T21:15:15.973Z,19.69
2022-07-29T21:18:06.093Z,19.66
2022-07-29T21:20:55.822Z,19.56
2022-07-29T21:23:50.022Z,19.49
2022-07-29T21:26:38.712Z,19.38
2022-07-29T21:29:28.814Z,19.28
2022-07-29T21:32:27.402Z,19.19
2022-07-29T21:35:31.375Z,19.10
2022-07-29T21:38:25.625Z,19.06
2022-07-29T21:41:15.493Z,18.97
2022-07-29T21:44:02.801Z,18.88
2022-07-29T21:46:50.823Z,18.76
2022-07-29T21:49:39.185Z,18.65
2022-07-29T21:52:25.847Z,18.57
2022-07-29T21:55:13.906Z,18.51
2022-07-29T21:58:00.716Z,18.45
2022-07-29T22:00:47.450Z,18.38
2022-07-29T22:03:34.291Z,18.35
2022-07-29T22:06:22.358Z,18.29
2022-07-29T22:09:09.049Z,18.23
2022-07-29T22:11:56.136Z,18.21
2022-07-29T22:14:42.831Z,18.22
2022-07-29T22:17:29.601Z,18.22
2022-07-29T22:20:16.593Z,18.18
2022-07-29T22:23:04.531Z,18.14
2022-07-29T22:25:51.407Z,18.08
2022-07-29T22:28:37.963Z,17.99
2022-07-29T22:31:24.987Z,17.95
2022-07-29T22:34:13.443Z,17.88
2022-07-29T22:37:00.495Z,17.78
2022-07-29T22:39:48.825Z,17.69
2022-07-29T22:42:35.898Z,17.63
2022-07-29T22:45:27.640Z,17.54
2022-07-29T22:48:14.343Z,17.51
2022-07-29T22:51:01.438Z,17.44
2022-07-29T22:53:48.100Z,17.39
2022-07-29T22:56:36.834Z,17.31
2022-07-29T22:59:23.389Z,17.32
2022-07-29T23:02:10.042Z,17.23
2022-07-29T23:04:56.853Z,17.15
2022-07-29T23:07:43.587Z,17.10
2022-07-29T23:10:30.399Z,17.10
2022-07-29T23:13:18.404Z,17.00
2022-07-29T23:16:05.679Z,17.00
2022-07-29T23:18:53.156Z,16.89
2022-07-29T23:21:39.723Z,16.83
2022-07-29T23:24:26.455Z,16.78
2022-07-29T23:27:13.210Z,16.72
2022-07-29T23:30:01.331Z,16.64
2022-07-29T23:32:48.025Z,16.56
2022-07-29T23:35:34.830Z,16.57
2022-07-29T23:38:21.668Z,16.50
2022-07-29T23:41:09.848Z,16.44
2022-07-29T23:43:56.593Z,16.46
2022-07-29T23:46:44.839Z,16.45
2022-07-29T23:49:31.475Z,16.38
2022-07-29T23:52:18.925Z,16.39
2022-07-29T23:55:36.454Z,16.32
2022-07-29T23:58:13.013Z,16.23
